sensor_id;sensor_type;location;lat;lon;timestamp;pressure;altitude;pressure_sealevel;temperature;humidity
26531;BME280;14201;43.188;24.160;2023-04-15T00:02:21;98825.03;;;7.32;70.00
26531;BME280;14201;43.188;24.160;2023-04-15T00:04:47;98820.81;;;7.34;69.72
26531;BME280;14201;43.188;24.160;2023-04-15T00:07:13;98816.19;;;6.86;70.34
26531;BME280;14201;43.188;24.160;2023-04-15T00:09:40;98820.97;;;6.57;72.40
26531;BME280;14201;43.188;24.160;2023-04-15T00:12:07;98818.59;;;6.42;73.16
26531;BME280;14201;43.188;24.160;2023-04-15T00:14:34;98822.06;;;6.62;72.38
26531;BME280;14201;43.188;24.160;2023-04-15T00:17:03;98820.56;;;6.67;72.43
26531;BME280;14201;43.188;24.160;2023-04-15T00:19:29;98829.81;;;6.82;72.11
26531;BME280;14201;43.188;24.160;2023-04-15T00:21:55;98822.38;;;6.89;71.32
26531;BME280;14201;43.188;24.160;2023-04-15T00:24:22;98834.00;;;6.99;70.52
26531;BME280;14201;43.188;24.160;2023-04-15T00:26:47;98840.25;;;7.24;69.69
26531;BME280;14201;43.188;24.160;2023-04-15T00:29:13;98838.47;;;7.23;69.89
26531;BME280;14201;43.188;24.160;2023-04-15T00:31:39;98839.81;;;7.34;69.42
26531;BME280;14201;43.188;24.160;2023-04-15T00:34:05;98847.91;;;7.42;69.20
26531;BME280;14201;43.188;24.160;2023-04-15T00:36:30;98836.09;;;7.48;68.63
26531;BME280;14201;43.188;24.160;2023-04-15T00:38:58;98840.28;;;7.66;67.92
26531;BME280;14201;43.188;24.160;2023-04-15T00:41:23;98848.84;;;7.65;68.31
26531;BME280;14201;43.188;24.160;2023-04-15T00:43:49;98850.63;;;7.66;68.58
26531;BME280;14201;43.188;24.160;2023-04-15T00:46:16;98844.44;;;7.41;68.84
26531;BME280;14201;43.188;24.160;2023-04-15T00:48:45;98861.41;;;7.35;69.56
26531;BME280;14201;43.188;24.160;2023-04-15T00:51:12;98860.56;;;7.15;70.54
26531;BME280;14201;43.188;24.160;2023-04-15T00:53:38;98858.25;;;7.01;71.04
26531;BME280;14201;43.188;24.160;2023-04-15T00:56:05;98867.09;;;7.26;70.61
26531;BME280;14201;43.188;24.160;2023-04-15T00:58:31;98853.09;;;7.42;69.45
26531;BME280;14201;43.188;24.160;2023-04-15T01:00:57;98861.56;;;7.38;69.42
26531;BME280;14201;43.188;24.160;2023-04-15T01:03:23;98857.56;;;7.46;69.09
26531;BME280;14201;43.188;24.160;2023-04-15T01:05:49;98863.13;;;7.55;68.51
26531;BME280;14201;43.188;24.160;2023-04-15T01:08:26;98871.84;;;7.36;68.56
26531;BME280;14201;43.188;24.160;2023-04-15T01:10:54;98862.72;;;7.44;68.57
26531;BME280;14201;43.188;24.160;2023-04-15T01:13:22;98867.75;;;7.41;68.64
26531;BME280;14201;43.188;24.160;2023-04-15T01:15:49;98867.75;;;7.62;68.77
26531;BME280;14201;43.188;24.160;2023-04-15T01:18:16;98870.59;;;7.68;67.64
26531;BME280;14201;43.188;24.160;2023-04-15T01:20:42;98869.13;;;7.75;67.11
26531;BME280;14201;43.188;24.160;2023-04-15T01:23:08;98878.22;;;7.86;67.38
26531;BME280;14201;43.188;24.160;2023-04-15T01:25:34;98875.53;;;7.83;67.61
26531;BME280;14201;43.188;24.160;2023-04-15T01:27:59;98874.06;;;7.69;68.05
26531;BME280;14201;43.188;24.160;2023-04-15T01:30:25;98880.91;;;7.67;68.55
26531;BME280;14201;43.188;24.160;2023-04-15T01:32:52;98867.78;;;7.85;67.39
26531;BME280;14201;43.188;24.160;2023-04-15T01:35:17;98883.63;;;7.91;67.16
26531;BME280;14201;43.188;24.160;2023-04-15T01:37:43;98886.00;;;7.86;66.75
26531;BME280;14201;43.188;24.160;2023-04-15T01:40:09;98895.56;;;7.87;67.26
26531;BME280;14201;43.188;24.160;2023-04-15T01:42:36;98886.78;;;7.84;67.38
26531;BME280;14201;43.188;24.160;2023-04-15T01:45:02;98889.53;;;7.88;67.06
26531;BME280;14201;43.188;24.160;2023-04-15T01:47:28;98887.66;;;7.84;67.04
26531;BME280;14201;43.188;24.160;2023-04-15T01:49:53;98892.53;;;7.98;66.96
26531;BME280;14201;43.188;24.160;2023-04-15T01:52:19;98891.56;;;7.96;67.25
26531;BME280;14201;43.188;24.160;2023-04-15T01:54:45;98890.38;;;7.87;67.46
26531;BME280;14201;43.188;24.160;2023-04-15T01:57:10;98898.91;;;7.85;67.28
26531;BME280;14201;43.188;24.160;2023-04-15T01:59:36;98889.44;;;7.85;67.96
26531;BME280;14201;43.188;24.160;2023-04-15T02:02:02;98893.22;;;7.73;68.22
26531;BME280;14201;43.188;24.160;2023-04-15T02:04:28;98882.47;;;7.63;68.58
26531;BME280;14201;43.188;24.160;2023-04-15T02:06:54;98902.88;;;7.56;68.68
26531;BME280;14201;43.188;24.160;2023-04-15T02:09:19;98887.84;;;7.47;68.84
26531;BME280;14201;43.188;24.160;2023-04-15T02:11:45;98889.41;;;7.43;68.44
26531;BME280;14201;43.188;24.160;2023-04-15T02:14:11;98898.84;;;7.41;69.22
26531;BME280;14201;43.188;24.160;2023-04-15T02:16:37;98896.00;;;7.35;69.14
26531;BME280;14201;43.188;24.160;2023-04-15T02:19:02;98893.47;;;6.98;70.74
26531;BME280;14201;43.188;24.160;2023-04-15T02:21:29;98894.91;;;7.10;70.27
26531;BME280;14201;43.188;24.160;2023-04-15T02:23:55;98894.91;;;7.10;70.51
26531;BME280;14201;43.188;24.160;2023-04-15T02:26:20;98873.69;;;6.98;70.56
26531;BME280;14201;43.188;24.160;2023-04-15T02:28:49;98894.72;;;7.06;70.08
26531;BME280;14201;43.188;24.160;2023-04-15T02:31:18;98887.22;;;7.12;70.02
26531;BME280;14201;43.188;24.160;2023-04-15T02:33:44;98895.41;;;7.02;70.32
26531;BME280;14201;43.188;24.160;2023-04-15T02:36:09;98899.75;;;7.03;70.90
26531;BME280;14201;43.188;24.160;2023-04-15T02:38:36;98899.34;;;7.13;70.45
26531;BME280;14201;43.188;24.160;2023-04-15T02:41:04;98900.72;;;7.05;70.41
26531;BME280;14201;43.188;24.160;2023-04-15T02:43:30;98896.69;;;7.12;70.21
26531;BME280;14201;43.188;24.160;2023-04-15T02:45:55;98897.34;;;7.07;70.81
26531;BME280;14201;43.188;24.160;2023-04-15T02:48:21;98903.19;;;7.02;70.70
26531;BME280;14201;43.188;24.160;2023-04-15T02:50:47;98906.31;;;6.95;71.00
26531;BME280;14201;43.188;24.160;2023-04-15T02:53:12;98902.69;;;6.91;71.13
26531;BME280;14201;43.188;24.160;2023-04-15T02:55:39;98912.94;;;6.50;71.38
26531;BME280;14201;43.188;24.160;2023-04-15T02:58:05;98913.56;;;6.64;72.24
26531;BME280;14201;43.188;24.160;2023-04-15T03:00:31;98919.34;;;6.59;71.83
26531;BME280;14201;43.188;24.160;2023-04-15T03:03:04;98918.19;;;6.52;72.29
26531;BME280;14201;43.188;24.160;2023-04-15T03:05:30;98909.31;;;6.47;72.37
26531;BME280;14201;43.188;24.160;2023-04-15T03:07:55;98915.06;;;6.59;72.10
26531;BME280;14201;43.188;24.160;2023-04-15T03:10:21;98915.13;;;6.61;72.11
26531;BME280;14201;43.188;24.160;2023-04-15T03:12:47;98909.59;;;6.53;72.71
26531;BME280;14201;43.188;24.160;2023-04-15T03:15:13;98914.84;;;6.55;72.16
26531;BME280;14201;43.188;24.160;2023-04-15T03:17:38;98910.81;;;6.42;72.57
26531;BME280;14201;43.188;24.160;2023-04-15T03:20:05;98904.44;;;6.35;72.79
26531;BME280;14201;43.188;24.160;2023-04-15T03:22:32;98903.84;;;6.41;73.42
26531;BME280;14201;43.188;24.160;2023-04-15T03:24:57;98907.28;;;6.40;73.42
26531;BME280;14201;43.188;24.160;2023-04-15T03:27:23;98908.94;;;6.39;73.08
26531;BME280;14201;43.188;24.160;2023-04-15T03:29:49;98905.66;;;6.42;72.59
26531;BME280;14201;43.188;24.160;2023-04-15T03:32:16;98918.13;;;6.33;73.32
26531;BME280;14201;43.188;24.160;2023-04-15T03:34:42;98918.06;;;6.31;73.66
26531;BME280;14201;43.188;24.160;2023-04-15T03:37:08;98906.84;;;6.30;73.82
26531;BME280;14201;43.188;24.160;2023-04-15T03:39:34;98918.06;;;6.31;74.06
26531;BME280;14201;43.188;24.160;2023-04-15T03:42:00;98922.09;;;6.26;73.78
26531;BME280;14201;43.188;24.160;2023-04-15T03:44:26;98929.16;;;6.28;73.15
26531;BME280;14201;43.188;24.160;2023-04-15T03:46:52;98933.78;;;6.18;74.46
26531;BME280;14201;43.188;24.160;2023-04-15T03:49:18;98927.88;;;6.20;74.54
26531;BME280;14201;43.188;24.160;2023-04-15T03:51:44;98931.34;;;6.39;73.18
26531;BME280;14201;43.188;24.160;2023-04-15T03:54:10;98929.81;;;6.42;73.07
26531;BME280;14201;43.188;24.160;2023-04-15T03:56:37;98944.19;;;6.37;73.22
26531;BME280;14201;43.188;24.160;2023-04-15T03:59:02;98950.13;;;6.35;72.76
26531;BME280;14201;43.188;24.160;2023-04-15T04:01:28;98960.47;;;6.17;72.69
26531;BME280;14201;43.188;24.160;2023-04-15T04:03:54;98965.47;;;6.14;72.12
26531;BME280;14201;43.188;24.160;2023-04-15T04:06:19;98972.13;;;6.08;72.54
26531;BME280;14201;43.188;24.160;2023-04-15T04:08:45;98975.91;;;5.97;72.77
26531;BME280;14201;43.188;24.160;2023-04-15T04:11:10;98983.22;;;6.06;74.27
26531;BME280;14201;43.188;24.160;2023-04-15T04:13:36;98992.38;;;6.17;74.28
26531;BME280;14201;43.188;24.160;2023-04-15T04:16:02;98979.16;;;6.29;73.99
26531;BME280;14201;43.188;24.160;2023-04-15T04:18:31;98974.66;;;6.43;74.63
26531;BME280;14201;43.188;24.160;2023-04-15T04:20:57;98981.59;;;6.62;74.05
26531;BME280;14201;43.188;24.160;2023-04-15T04:23:23;98990.31;;;6.64;74.09
26531;BME280;14201;43.188;24.160;2023-04-15T04:25:48;98996.50;;;6.31;73.79
26531;BME280;14201;43.188;24.160;2023-04-15T04:28:14;98998.31;;;6.33;74.44
26531;BME280;14201;43.188;24.160;2023-04-15T04:30:40;98994.81;;;6.50;73.86
26531;BME280;14201;43.188;24.160;2023-04-15T04:33:06;99004.88;;;6.62;74.14
26531;BME280;14201;43.188;24.160;2023-04-15T04:35:32;98991.25;;;6.30;75.24
26531;BME280;14201;43.188;24.160;2023-04-15T04:37:59;98992.50;;;6.20;76.09
26531;BME280;14201;43.188;24.160;2023-04-15T04:40:25;98995.34;;;6.43;76.31
26531;BME280;14201;43.188;24.160;2023-04-15T04:42:52;99004.94;;;6.27;78.42
26531;BME280;14201;43.188;24.160;2023-04-15T04:45:18;99008.50;;;6.65;78.21
26531;BME280;14201;43.188;24.160;2023-04-15T04:47:44;99000.44;;;6.97;76.77
26531;BME280;14201;43.188;24.160;2023-04-15T04:50:11;99002.19;;;6.98;75.75
26531;BME280;14201;43.188;24.160;2023-04-15T04:52:37;99005.56;;;6.95;76.60
26531;BME280;14201;43.188;24.160;2023-04-15T04:55:03;99012.28;;;7.29;76.04
26531;BME280;14201;43.188;24.160;2023-04-15T04:57:28;99010.69;;;7.72;74.87
26531;BME280;14201;43.188;24.160;2023-04-15T04:59:54;99020.13;;;7.91;74.01
26531;BME280;14201;43.188;24.160;2023-04-15T05:02:20;99023.75;;;8.15;74.15
26531;BME280;14201;43.188;24.160;2023-04-15T05:04:46;99023.53;;;8.30;74.79
26531;BME280;14201;43.188;24.160;2023-04-15T05:07:11;99026.28;;;8.77;72.02
26531;BME280;14201;43.188;24.160;2023-04-15T05:09:37;99029.22;;;9.09;70.32
26531;BME280;14201;43.188;24.160;2023-04-15T05:12:03;99039.97;;;9.18;70.73
26531;BME280;14201;43.188;24.160;2023-04-15T05:14:29;99033.47;;;9.06;71.43
26531;BME280;14201;43.188;24.160;2023-04-15T05:16:55;99040.25;;;9.25;70.18
26531;BME280;14201;43.188;24.160;2023-04-15T05:19:21;99040.13;;;9.45;72.16
26531;BME280;14201;43.188;24.160;2023-04-15T05:21:46;99040.34;;;9.75;69.41
26531;BME280;14201;43.188;24.160;2023-04-15T05:24:12;99043.41;;;10.13;67.60
26531;BME280;14201;43.188;24.160;2023-04-15T05:26:38;99052.13;;;10.15;67.89
26531;BME280;14201;43.188;24.160;2023-04-15T05:29:03;99052.59;;;10.53;68.00
26531;BME280;14201;43.188;24.160;2023-04-15T05:31:29;99049.19;;;10.83;67.95
26531;BME280;14201;43.188;24.160;2023-04-15T05:33:54;99053.16;;;11.28;66.03
26531;BME280;14201;43.188;24.160;2023-04-15T05:36:20;99052.38;;;11.60;67.25
26531;BME280;14201;43.188;24.160;2023-04-15T05:38:46;99051.31;;;11.86;66.22
26531;BME280;14201;43.188;24.160;2023-04-15T05:41:12;99055.03;;;12.26;63.90
26531;BME280;14201;43.188;24.160;2023-04-15T05:43:40;99055.16;;;12.65;61.96
26531;BME280;14201;43.188;24.160;2023-04-15T05:46:06;99051.63;;;12.99;61.56
26531;BME280;14201;43.188;24.160;2023-04-15T05:48:32;99053.56;;;13.10;61.27
26531;BME280;14201;43.188;24.160;2023-04-15T05:50:59;99044.56;;;13.35;60.59
26531;BME280;14201;43.188;24.160;2023-04-15T05:53:25;99044.03;;;13.50;59.93
26531;BME280;14201;43.188;24.160;2023-04-15T05:55:50;99040.75;;;13.60;57.93
26531;BME280;14201;43.188;24.160;2023-04-15T05:58:16;99043.44;;;14.10;57.66
26531;BME280;14201;43.188;24.160;2023-04-15T06:00:41;99044.03;;;14.43;57.38
26531;BME280;14201;43.188;24.160;2023-04-15T06:03:07;99042.75;;;14.71;54.60
26531;BME280;14201;43.188;24.160;2023-04-15T06:05:33;99043.94;;;14.90;54.35
26531;BME280;14201;43.188;24.160;2023-04-15T06:07:58;99051.28;;;15.12;53.58
26531;BME280;14201;43.188;24.160;2023-04-15T06:10:24;99047.84;;;15.20;52.60
26531;BME280;14201;43.188;24.160;2023-04-15T06:12:51;99049.16;;;15.52;53.50
26531;BME280;14201;43.188;24.160;2023-04-15T06:15:17;99052.31;;;15.92;53.52
26531;BME280;14201;43.188;24.160;2023-04-15T06:17:43;99055.19;;;16.16;49.92
26531;BME280;14201;43.188;24.160;2023-04-15T06:20:09;99053.72;;;16.45;50.63
26531;BME280;14201;43.188;24.160;2023-04-15T06:22:36;99053.81;;;16.54;50.00
26531;BME280;14201;43.188;24.160;2023-04-15T06:25:03;99053.97;;;16.76;48.04
26531;BME280;14201;43.188;24.160;2023-04-15T06:27:28;99055.19;;;17.21;49.57
26531;BME280;14201;43.188;24.160;2023-04-15T06:29:54;99049.16;;;17.44;48.55
26531;BME280;14201;43.188;24.160;2023-04-15T06:32:20;99057.28;;;17.84;47.74
26531;BME280;14201;43.188;24.160;2023-04-15T06:34:45;99055.56;;;17.94;45.99
26531;BME280;14201;43.188;24.160;2023-04-15T06:37:11;99057.34;;;18.10;46.48
26531;BME280;14201;43.188;24.160;2023-04-15T06:39:40;99059.13;;;18.22;46.21
26531;BME280;14201;43.188;24.160;2023-04-15T06:42:06;99057.38;;;18.32;44.83
26531;BME280;14201;43.188;24.160;2023-04-15T06:44:31;99048.63;;;18.48;46.28
26531;BME280;14201;43.188;24.160;2023-04-15T06:46:56;99044.25;;;18.92;44.74
26531;BME280;14201;43.188;24.160;2023-04-15T06:49:22;99047.72;;;19.15;44.65
26531;BME280;14201;43.188;24.160;2023-04-15T06:51:47;99060.06;;;19.12;41.87
26531;BME280;14201;43.188;24.160;2023-04-15T06:54:13;99065.28;;;19.41;44.07
26531;BME280;14201;43.188;24.160;2023-04-15T06:56:38;99073.16;;;19.55;41.00
26531;BME280;14201;43.188;24.160;2023-04-15T06:59:04;99066.94;;;19.73;42.18
26531;BME280;14201;43.188;24.160;2023-04-15T07:01:30;99057.97;;;20.11;41.24
26531;BME280;14201;43.188;24.160;2023-04-15T07:03:56;99068.38;;;20.38;41.91
26531;BME280;14201;43.188;24.160;2023-04-15T07:06:21;99075.31;;;20.59;41.23
26531;BME280;14201;43.188;24.160;2023-04-15T07:08:47;99072.38;;;20.93;41.52
26531;BME280;14201;43.188;24.160;2023-04-15T07:11:12;99076.44;;;21.30;40.21
26531;BME280;14201;43.188;24.160;2023-04-15T07:13:38;99086.03;;;21.41;40.81
26531;BME280;14201;43.188;24.160;2023-04-15T07:16:03;99079.50;;;21.75;39.79
26531;BME280;14201;43.188;24.160;2023-04-15T07:18:29;99082.88;;;21.88;40.03
26531;BME280;14201;43.188;24.160;2023-04-15T07:20:54;99080.88;;;22.05;38.20
26531;BME280;14201;43.188;24.160;2023-04-15T07:23:20;99088.09;;;21.94;37.96
26531;BME280;14201;43.188;24.160;2023-04-15T07:25:46;99086.47;;;21.85;38.17
26531;BME280;14201;43.188;24.160;2023-04-15T07:28:12;99086.38;;;21.93;39.08
26531;BME280;14201;43.188;24.160;2023-04-15T07:30:37;99092.25;;;22.15;38.95
26531;BME280;14201;43.188;24.160;2023-04-15T07:33:03;99093.00;;;22.23;35.82
26531;BME280;14201;43.188;24.160;2023-04-15T07:35:28;99099.09;;;22.33;37.96
26531;BME280;14201;43.188;24.160;2023-04-15T07:37:54;99097.03;;;22.53;37.28
26531;BME280;14201;43.188;24.160;2023-04-15T07:40:20;99093.94;;;22.83;36.87
26531;BME280;14201;43.188;24.160;2023-04-15T07:42:46;99085.63;;;23.03;37.05
26531;BME280;14201;43.188;24.160;2023-04-15T07:45:13;99080.66;;;23.34;36.32
26531;BME280;14201;43.188;24.160;2023-04-15T07:47:39;99084.97;;;23.39;36.67
26531;BME280;14201;43.188;24.160;2023-04-15T07:50:05;99083.94;;;23.48;34.23
26531;BME280;14201;43.188;24.160;2023-04-15T07:52:31;99086.44;;;23.09;33.60
26531;BME280;14201;43.188;24.160;2023-04-15T07:54:59;99077.72;;;22.44;36.28
26531;BME280;14201;43.188;24.160;2023-04-15T07:57:24;99074.09;;;21.84;37.04
26531;BME280;14201;43.188;24.160;2023-04-15T07:59:50;99078.84;;;21.56;37.27
26531;BME280;14201;43.188;24.160;2023-04-15T08:02:16;99079.84;;;21.41;36.69
26531;BME280;14201;43.188;24.160;2023-04-15T08:04:42;99088.31;;;20.89;38.22
26531;BME280;14201;43.188;24.160;2023-04-15T08:07:10;99085.03;;;21.53;39.03
26531;BME280;14201;43.188;24.160;2023-04-15T08:09:36;99091.28;;;22.22;38.80
26531;BME280;14201;43.188;24.160;2023-04-15T08:12:01;99090.31;;;22.87;35.72
26531;BME280;14201;43.188;24.160;2023-04-15T08:14:27;99085.13;;;23.32;36.91
26531;BME280;14201;43.188;24.160;2023-04-15T08:16:53;99081.66;;;23.75;35.41
26531;BME280;14201;43.188;24.160;2023-04-15T08:19:19;99080.94;;;24.09;32.08
26531;BME280;14201;43.188;24.160;2023-04-15T08:21:44;99082.13;;;23.95;32.47
26531;BME280;14201;43.188;24.160;2023-04-15T08:24:10;99082.09;;;23.97;35.10
26531;BME280;14201;43.188;24.160;2023-04-15T08:26:35;99092.94;;;24.28;34.58
26531;BME280;14201;43.188;24.160;2023-04-15T08:29:01;99086.28;;;24.09;32.20
26531;BME280;14201;43.188;24.160;2023-04-15T08:31:27;99082.50;;;24.19;32.77
26531;BME280;14201;43.188;24.160;2023-04-15T08:33:55;99089.81;;;24.08;34.21
26531;BME280;14201;43.188;24.160;2023-04-15T08:36:21;99082.38;;;23.38;34.74
26531;BME280;14201;43.188;24.160;2023-04-15T08:38:47;99081.41;;;22.89;34.97
26531;BME280;14201;43.188;24.160;2023-04-15T08:41:21;99082.47;;;22.20;35.52
26531;BME280;14201;43.188;24.160;2023-04-15T08:43:51;99076.53;;;22.63;35.05
26531;BME280;14201;43.188;24.160;2023-04-15T08:46:17;99082.69;;;23.19;33.94
26531;BME280;14201;43.188;24.160;2023-04-15T08:48:43;99072.91;;;23.68;34.46
26531;BME280;14201;43.188;24.160;2023-04-15T08:51:11;99076.97;;;23.86;33.18
26531;BME280;14201;43.188;24.160;2023-04-15T08:53:40;99078.38;;;23.12;32.64
26531;BME280;14201;43.188;24.160;2023-04-15T08:56:07;99067.09;;;20.92;34.31
26531;BME280;14201;43.188;24.160;2023-04-15T08:58:34;99079.31;;;21.08;32.60
26531;BME280;14201;43.188;24.160;2023-04-15T09:01:00;99072.50;;;20.78;34.69
26531;BME280;14201;43.188;24.160;2023-04-15T09:03:26;99069.78;;;20.89;34.79
26531;BME280;14201;43.188;24.160;2023-04-15T09:05:52;99076.06;;;20.78;35.69
26531;BME280;14201;43.188;24.160;2023-04-15T09:08:19;99077.28;;;20.22;35.08
26531;BME280;14201;43.188;24.160;2023-04-15T09:10:45;99077.94;;;20.61;38.57
26531;BME280;14201;43.188;24.160;2023-04-15T09:13:10;99080.22;;;21.06;35.11
26531;BME280;14201;43.188;24.160;2023-04-15T09:15:39;99080.03;;;21.22;34.41
26531;BME280;14201;43.188;24.160;2023-04-15T09:18:04;99061.09;;;21.61;32.55
26531;BME280;14201;43.188;24.160;2023-04-15T09:20:38;99056.19;;;22.01;30.71
26531;BME280;14201;43.188;24.160;2023-04-15T09:23:11;99060.94;;;22.41;29.54
26531;BME280;14201;43.188;24.160;2023-04-15T09:25:39;99046.75;;;22.42;33.43
26531;BME280;14201;43.188;24.160;2023-04-15T09:28:07;99049.25;;;22.53;30.35
26531;BME280;14201;43.188;24.160;2023-04-15T09:30:33;99043.81;;;22.63;31.09
26531;BME280;14201;43.188;24.160;2023-04-15T09:33:01;99039.59;;;23.00;30.23
26531;BME280;14201;43.188;24.160;2023-04-15T09:35:27;99036.22;;;22.91;29.66
26531;BME280;14201;43.188;24.160;2023-04-15T09:38:04;99041.97;;;22.66;31.76
26531;BME280;14201;43.188;24.160;2023-04-15T09:40:36;99030.97;;;23.37;32.25
26531;BME280;14201;43.188;24.160;2023-04-15T09:43:02;99025.78;;;24.15;30.69
26531;BME280;14201;43.188;24.160;2023-04-15T09:45:29;99032.91;;;24.54;29.64
26531;BME280;14201;43.188;24.160;2023-04-15T09:47:56;99021.91;;;24.68;30.22
26531;BME280;14201;43.188;24.160;2023-04-15T09:50:26;99014.13;;;25.29;30.32
26531;BME280;14201;43.188;24.160;2023-04-15T09:52:53;99013.28;;;25.88;29.73
26531;BME280;14201;43.188;24.160;2023-04-15T09:55:19;99019.19;;;26.29;29.19
26531;BME280;14201;43.188;24.160;2023-04-15T09:57:45;99007.09;;;26.44;27.83
26531;BME280;14201;43.188;24.160;2023-04-15T10:00:14;99000.00;;;26.71;25.94
26531;BME280;14201;43.188;24.160;2023-04-15T10:02:41;99005.50;;;26.93;26.19
26531;BME280;14201;43.188;24.160;2023-04-15T10:05:09;99004.56;;;26.94;26.81
26531;BME280;14201;43.188;24.160;2023-04-15T10:07:37;99006.91;;;27.03;27.04
26531;BME280;14201;43.188;24.160;2023-04-15T10:10:04;99008.91;;;26.97;26.28
26531;BME280;14201;43.188;24.160;2023-04-15T10:12:30;98999.91;;;25.89;24.90
26531;BME280;14201;43.188;24.160;2023-04-15T10:14:59;99002.63;;;25.27;26.01
26531;BME280;14201;43.188;24.160;2023-04-15T10:17:29;99001.88;;;25.53;28.38
26531;BME280;14201;43.188;24.160;2023-04-15T10:20:02;99007.91;;;25.89;26.85
26531;BME280;14201;43.188;24.160;2023-04-15T10:22:29;99005.06;;;25.96;25.52
26531;BME280;14201;43.188;24.160;2023-04-15T10:24:55;99002.38;;;25.36;26.25
26531;BME280;14201;43.188;24.160;2023-04-15T10:27:22;99001.16;;;25.78;26.46
26531;BME280;14201;43.188;24.160;2023-04-15T10:29:50;99005.22;;;25.89;26.29
26531;BME280;14201;43.188;24.160;2023-04-15T10:32:18;99001.78;;;25.86;26.33
26531;BME280;14201;43.188;24.160;2023-04-15T10:34:47;99009.19;;;25.76;26.04
26531;BME280;14201;43.188;24.160;2023-04-15T10:37:20;99004.72;;;25.14;28.54
26531;BME280;14201;43.188;24.160;2023-04-15T10:39:46;99011.09;;;24.36;27.37
26531;BME280;14201;43.188;24.160;2023-04-15T10:42:16;99003.75;;;24.84;26.17
26531;BME280;14201;43.188;24.160;2023-04-15T10:44:49;99011.34;;;24.99;26.61
26531;BME280;14201;43.188;24.160;2023-04-15T10:47:19;99009.38;;;24.71;28.93
26531;BME280;14201;43.188;24.160;2023-04-15T10:49:48;99002.78;;;24.52;27.90
26531;BME280;14201;43.188;24.160;2023-04-15T10:52:22;99004.66;;;24.83;27.75
26531;BME280;14201;43.188;24.160;2023-04-15T10:54:48;98986.59;;;24.94;28.08
26531;BME280;14201;43.188;24.160;2023-04-15T10:57:21;98980.81;;;25.11;27.55
26531;BME280;14201;43.188;24.160;2023-04-15T11:05:06;98973.84;;;23.58;28.08
26531;BME280;14201;43.188;24.160;2023-04-15T11:08:01;98981.72;;;22.70;30.70
26531;BME280;14201;43.188;24.160;2023-04-15T11:13:15;98989.88;;;22.01;30.46
26531;BME280;14201;43.188;24.160;2023-04-15T11:15:45;98981.34;;;21.81;31.13
26531;BME280;14201;43.188;24.160;2023-04-15T11:18:19;98989.56;;;22.21;30.51
26531;BME280;14201;43.188;24.160;2023-04-15T11:20:54;98981.13;;;22.54;28.85
26531;BME280;14201;43.188;24.160;2023-04-15T11:23:34;98978.66;;;22.43;28.71
26531;BME280;14201;43.188;24.160;2023-04-15T11:26:05;98966.00;;;22.01;30.12
26531;BME280;14201;43.188;24.160;2023-04-15T11:28:34;98969.91;;;21.76;30.38
26531;BME280;14201;43.188;24.160;2023-04-15T11:33:37;98977.09;;;21.68;31.70
26531;BME280;14201;43.188;24.160;2023-04-15T11:36:03;98977.22;;;21.58;30.73
26531;BME280;14201;43.188;24.160;2023-04-15T11:38:29;98976.06;;;21.78;30.05
26531;BME280;14201;43.188;24.160;2023-04-15T11:40:56;98977.22;;;22.20;29.92
26531;BME280;14201;43.188;24.160;2023-04-15T11:43:22;98985.94;;;22.29;31.46
26531;BME280;14201;43.188;24.160;2023-04-15T11:45:56;98980.06;;;22.07;28.99
26531;BME280;14201;43.188;24.160;2023-04-15T11:48:26;98975.81;;;22.52;30.46
26531;BME280;14201;43.188;24.160;2023-04-15T11:51:11;98971.44;;;21.92;29.58
26531;BME280;14201;43.188;24.160;2023-04-15T11:56:09;98978.00;;;22.29;31.22
26531;BME280;14201;43.188;24.160;2023-04-15T11:58:36;98970.56;;;22.51;29.75
26531;BME280;14201;43.188;24.160;2023-04-15T12:01:03;98965.66;;;22.76;28.98
26531;BME280;14201;43.188;24.160;2023-04-15T12:03:29;98962.91;;;22.32;30.93
26531;BME280;14201;43.188;24.160;2023-04-15T12:08:59;98962.09;;;22.27;28.68
26531;BME280;14201;43.188;24.160;2023-04-15T12:13:54;98957.56;;;22.35;28.74
26531;BME280;14201;43.188;24.160;2023-04-15T12:16:21;98956.59;;;22.39;29.74
26531;BME280;14201;43.188;24.160;2023-04-15T12:18:53;98961.88;;;22.91;29.02
26531;BME280;14201;43.188;24.160;2023-04-15T12:21:24;98956.72;;;23.28;27.78
26531;BME280;14201;43.188;24.160;2023-04-15T12:23:55;98959.75;;;23.53;28.55
26531;BME280;14201;43.188;24.160;2023-04-15T12:26:51;98955.69;;;23.79;27.97
26531;BME280;14201;43.188;24.160;2023-04-15T12:29:18;98962.22;;;23.63;28.19
26531;BME280;14201;43.188;24.160;2023-04-15T12:31:48;98959.16;;;22.95;27.45
26531;BME280;14201;43.188;24.160;2023-04-15T12:34:15;98955.00;;;22.79;27.56
26531;BME280;14201;43.188;24.160;2023-04-15T12:36:41;98964.03;;;22.70;27.38
26531;BME280;14201;43.188;24.160;2023-04-15T12:39:06;98955.94;;;22.76;26.29
26531;BME280;14201;43.188;24.160;2023-04-15T12:41:32;98954.72;;;22.94;27.54
26531;BME280;14201;43.188;24.160;2023-04-15T12:43:58;98952.78;;;23.04;26.85
26531;BME280;14201;43.188;24.160;2023-04-15T12:46:24;98956.72;;;23.30;25.50
26531;BME280;14201;43.188;24.160;2023-04-15T12:48:50;98961.47;;;23.57;26.82
26531;BME280;14201;43.188;24.160;2023-04-15T12:51:19;98964.16;;;23.56;26.67
26531;BME280;14201;43.188;24.160;2023-04-15T12:53:47;98953.28;;;23.25;27.06
26531;BME280;14201;43.188;24.160;2023-04-15T12:56:14;98943.50;;;23.27;26.05
26531;BME280;14201;43.188;24.160;2023-04-15T12:58:41;98965.19;;;23.49;26.40
26531;BME280;14201;43.188;24.160;2023-04-15T13:01:07;98956.69;;;23.31;26.21
26531;BME280;14201;43.188;24.160;2023-04-15T13:03:33;98957.25;;;23.46;26.02
26531;BME280;14201;43.188;24.160;2023-04-15T13:05:58;98959.38;;;23.72;28.25
26531;BME280;14201;43.188;24.160;2023-04-15T13:08:26;98954.41;;;23.95;26.32
26531;BME280;14201;43.188;24.160;2023-04-15T13:10:52;98954.78;;;23.78;26.26
26531;BME280;14201;43.188;24.160;2023-04-15T13:13:18;98961.63;;;23.50;27.06